sensor_id;sensor_type;location;lat;lon;timestamp;P1;durP1;ratioP1;P2;durP2;ratioP2
51732;SDS011;39139;53.144;6.244;2024-01-15T00:01:28;13.40;;;1.48;;
51732;SDS011;39139;53.144;6.244;2024-01-15T00:03:54;12.00;;;1.67;;
51732;SDS011;39139;53.144;6.244;2024-01-15T00:06:19;13.88;;;2.08;;
51732;SDS011;39139;53.144;6.244;2024-01-15T00:08:45;8.70;;;1.42;;
51732;SDS011;39139;53.144;6.244;2024-01-15T00:11:11;15.98;;;1.83;;
51732;SDS011;39139;53.144;6.244;2024-01-15T00:13:36;13.85;;;1.45;;
51732;SDS011;39139;53.144;6.244;2024-01-15T00:16:02;9.95;;;1.65;;
51732;SDS011;39139;53.144;6.244;2024-01-15T00:18:29;7.30;;;1.33;;
51732;SDS011;39139;53.144;6.244;2024-01-15T00:20:55;20.17;;;3.35;;
51732;SDS011;39139;53.144;6.244;2024-01-15T00:23:22;18.13;;;2.88;;
51732;SDS011;39139;53.144;6.244;2024-01-15T00:25:47;21.35;;;2.33;;
51732;SDS011;39139;53.144;6.244;2024-01-15T00:28:13;23.95;;;2.25;;
51732;SDS011;39139;53.144;6.244;2024-01-15T00:30:39;19.15;;;3.08;;
51732;SDS011;39139;53.144;6.244;2024-01-15T00:33:04;20.55;;;2.63;;
51732;SDS011;39139;53.144;6.244;2024-01-15T00:35:30;18.00;;;2.95;;
51732;SDS011;39139;53.144;6.244;2024-01-15T00:37:55;16.40;;;3.22;;
51732;SDS011;39139;53.144;6.244;2024-01-15T00:40:21;21.45;;;2.92;;
51732;SDS011;39139;53.144;6.244;2024-01-15T00:42:46;17.55;;;2.55;;
51732;SDS011;39139;53.144;6.244;2024-01-15T00:45:12;18.52;;;1.92;;
51732;SDS011;39139;53.144;6.244;2024-01-15T00:47:38;23.83;;;2.22;;
51732;SDS011;39139;53.144;6.244;2024-01-15T00:50:03;23.33;;;3.33;;
51732;SDS011;39139;53.144;6.244;2024-01-15T00:52:29;16.20;;;1.70;;
51732;SDS011;39139;53.144;6.244;2024-01-15T00:54:55;11.10;;;2.05;;
51732;SDS011;39139;53.144;6.244;2024-01-15T00:57:20;10.05;;;1.52;;
51732;SDS011;39139;53.144;6.244;2024-01-15T00:59:46;12.43;;;1.13;;
51732;SDS011;39139;53.144;6.244;2024-01-15T01:02:12;12.02;;;2.00;;
51732;SDS011;39139;53.144;6.244;2024-01-15T01:04:38;7.85;;;1.63;;
51732;SDS011;39139;53.144;6.244;2024-01-15T01:07:03;7.10;;;1.02;;
51732;SDS011;39139;53.144;6.244;2024-01-15T01:09:29;8.13;;;1.23;;
51732;SDS011;39139;53.144;6.244;2024-01-15T01:11:55;15.95;;;1.55;;
51732;SDS011;39139;53.144;6.244;2024-01-15T01:14:21;8.10;;;1.52;;
51732;SDS011;39139;53.144;6.244;2024-01-15T01:16:47;9.00;;;1.70;;
51732;SDS011;39139;53.144;6.244;2024-01-15T01:19:13;9.43;;;1.17;;
51732;SDS011;39139;53.144;6.244;2024-01-15T01:21:38;7.22;;;1.75;;
51732;SDS011;39139;53.144;6.244;2024-01-15T01:24:04;9.93;;;1.92;;
51732;SDS011;39139;53.144;6.244;2024-01-15T01:26:30;10.27;;;1.25;;
51732;SDS011;39139;53.144;6.244;2024-01-15T01:28:56;12.98;;;1.23;;
51732;SDS011;39139;53.144;6.244;2024-01-15T01:31:23;12.90;;;0.93;;
51732;SDS011;39139;53.144;6.244;2024-01-15T01:33:49;4.20;;;0.75;;
51732;SDS011;39139;53.144;6.244;2024-01-15T01:36:14;7.07;;;0.40;;
51732;SDS011;39139;53.144;6.244;2024-01-15T01:38:40;7.38;;;0.65;;
51732;SDS011;39139;53.144;6.244;2024-01-15T01:41:06;7.57;;;0.70;;
51732;SDS011;39139;53.144;6.244;2024-01-15T01:43:32;7.53;;;0.85;;
51732;SDS011;39139;53.144;6.244;2024-01-15T01:45:58;4.50;;;1.00;;
51732;SDS011;39139;53.144;6.244;2024-01-15T01:48:26;7.07;;;1.02;;
51732;SDS011;39139;53.144;6.244;2024-01-15T01:50:57;5.97;;;0.77;;
51732;SDS011;39139;53.144;6.244;2024-01-15T01:53:24;6.78;;;1.23;;
51732;SDS011;39139;53.144;6.244;2024-01-15T01:55:54;12.23;;;1.08;;
51732;SDS011;39139;53.144;6.244;2024-01-15T01:58:22;12.63;;;1.98;;
51732;SDS011;39139;53.144;6.244;2024-01-15T02:00:48;5.07;;;1.20;;
51732;SDS011;39139;53.144;6.244;2024-01-15T02:03:14;15.25;;;2.17;;
51732;SDS011;39139;53.144;6.244;2024-01-15T02:05:40;13.00;;;2.25;;
51732;SDS011;39139;53.144;6.244;2024-01-15T02:08:08;12.32;;;2.13;;
51732;SDS011;39139;53.144;6.244;2024-01-15T02:10:33;13.65;;;1.67;;
51732;SDS011;39139;53.144;6.244;2024-01-15T02:12:59;15.18;;;1.80;;
51732;SDS011;39139;53.144;6.244;2024-01-15T02:15:24;16.98;;;3.20;;
51732;SDS011;39139;53.144;6.244;2024-01-15T02:18:00;18.70;;;3.03;;
51732;SDS011;39139;53.144;6.244;2024-01-15T02:20:27;20.13;;;3.38;;
51732;SDS011;39139;53.144;6.244;2024-01-15T02:22:52;17.77;;;2.55;;
51732;SDS011;39139;53.144;6.244;2024-01-15T02:25:18;20.33;;;2.63;;
51732;SDS011;39139;53.144;6.244;2024-01-15T02:27:44;16.70;;;2.42;;
51732;SDS011;39139;53.144;6.244;2024-01-15T02:30:11;16.48;;;2.38;;
51732;SDS011;39139;53.144;6.244;2024-01-15T02:32:40;12.95;;;1.85;;
51732;SDS011;39139;53.144;6.244;2024-01-15T02:35:06;18.77;;;2.10;;
51732;SDS011;39139;53.144;6.244;2024-01-15T02:37:32;14.13;;;2.25;;
51732;SDS011;39139;53.144;6.244;2024-01-15T02:39:57;13.32;;;2.35;;
51732;SDS011;39139;53.144;6.244;2024-01-15T02:42:26;7.22;;;0.85;;
51732;SDS011;39139;53.144;6.244;2024-01-15T02:44:51;8.90;;;1.20;;
51732;SDS011;39139;53.144;6.244;2024-01-15T02:47:17;8.50;;;1.05;;
51732;SDS011;39139;53.144;6.244;2024-01-15T02:49:42;9.23;;;1.45;;
51732;SDS011;39139;53.144;6.244;2024-01-15T02:52:08;16.75;;;1.35;;
51732;SDS011;39139;53.144;6.244;2024-01-15T02:54:34;9.57;;;1.42;;
51732;SDS011;39139;53.144;6.244;2024-01-15T02:56:59;7.88;;;1.83;;
51732;SDS011;39139;53.144;6.244;2024-01-15T02:59:25;13.55;;;1.92;;
51732;SDS011;39139;53.144;6.244;2024-01-15T03:01:50;13.48;;;1.70;;
51732;SDS011;39139;53.144;6.244;2024-01-15T03:04:16;11.98;;;2.13;;
51732;SDS011;39139;53.144;6.244;2024-01-15T03:06:41;10.07;;;1.60;;
51732;SDS011;39139;53.144;6.244;2024-01-15T03:09:07;6.72;;;1.52;;
51732;SDS011;39139;53.144;6.244;2024-01-15T03:11:39;12.65;;;1.85;;
51732;SDS011;39139;53.144;6.244;2024-01-15T03:14:05;26.17;;;4.45;;
51732;SDS011;39139;53.144;6.244;2024-01-15T03:16:31;16.73;;;1.67;;
51732;SDS011;39139;53.144;6.244;2024-01-15T03:18:57;13.30;;;1.70;;
51732;SDS011;39139;53.144;6.244;2024-01-15T03:21:22;13.27;;;2.50;;
51732;SDS011;39139;53.144;6.244;2024-01-15T03:23:48;7.45;;;1.95;;
51732;SDS011;39139;53.144;6.244;2024-01-15T03:26:13;6.25;;;1.88;;
51732;SDS011;39139;53.144;6.244;2024-01-15T03:28:39;17.67;;;2.15;;
51732;SDS011;39139;53.144;6.244;2024-01-15T03:31:05;15.70;;;1.73;;
51732;SDS011;39139;53.144;6.244;2024-01-15T03:33:30;13.65;;;1.90;;
51732;SDS011;39139;53.144;6.244;2024-01-15T03:35:56;12.00;;;1.67;;
51732;SDS011;39139;53.144;6.244;2024-01-15T03:38:22;23.65;;;2.92;;
51732;SDS011;39139;53.144;6.244;2024-01-15T03:40:48;20.67;;;2.83;;
51732;SDS011;39139;53.144;6.244;2024-01-15T03:43:14;11.68;;;1.67;;
51732;SDS011;39139;53.144;6.244;2024-01-15T03:45:39;13.43;;;2.05;;
51732;SDS011;39139;53.144;6.244;2024-01-15T03:48:05;9.40;;;2.05;;
51732;SDS011;39139;53.144;6.244;2024-01-15T03:50:31;9.57;;;1.65;;
51732;SDS011;39139;53.144;6.244;2024-01-15T03:52:56;12.45;;;1.63;;
51732;SDS011;39139;53.144;6.244;2024-01-15T03:55:22;14.85;;;1.85;;
51732;SDS011;39139;53.144;6.244;2024-01-15T03:57:47;13.20;;;1.33;;
51732;SDS011;39139;53.144;6.244;2024-01-15T04:00:14;6.30;;;1.00;;
51732;SDS011;39139;53.144;6.244;2024-01-15T04:02:42;10.32;;;1.55;;
51732;SDS011;39139;53.144;6.244;2024-01-15T04:05:09;11.45;;;2.17;;
51732;SDS011;39139;53.144;6.244;2024-01-15T04:07:34;18.75;;;3.10;;
51732;SDS011;39139;53.144;6.244;2024-01-15T04:10:00;18.67;;;3.35;;
51732;SDS011;39139;53.144;6.244;2024-01-15T04:12:25;21.17;;;3.25;;
51732;SDS011;39139;53.144;6.244;2024-01-15T04:14:51;17.30;;;2.63;;
51732;SDS011;39139;53.144;6.244;2024-01-15T04:17:16;7.82;;;1.35;;
51732;SDS011;39139;53.144;6.244;2024-01-15T04:19:45;7.63;;;1.42;;
51732;SDS011;39139;53.144;6.244;2024-01-15T04:22:13;9.18;;;1.13;;
51732;SDS011;39139;53.144;6.244;2024-01-15T04:24:38;9.32;;;1.05;;
51732;SDS011;39139;53.144;6.244;2024-01-15T04:27:04;12.60;;;1.70;;
51732;SDS011;39139;53.144;6.244;2024-01-15T04:29:30;8.20;;;1.38;;
51732;SDS011;39139;53.144;6.244;2024-01-15T04:31:56;4.53;;;0.88;;
51732;SDS011;39139;53.144;6.244;2024-01-15T04:34:21;7.38;;;0.65;;
51732;SDS011;39139;53.144;6.244;2024-01-15T04:36:47;2.75;;;0.35;;
51732;SDS011;39139;53.144;6.244;2024-01-15T04:39:12;6.22;;;0.85;;
51732;SDS011;39139;53.144;6.244;2024-01-15T04:41:38;2.28;;;0.30;;
51732;SDS011;39139;53.144;6.244;2024-01-15T04:44:03;2.95;;;0.20;;
51732;SDS011;39139;53.144;6.244;2024-01-15T04:46:29;4.32;;;0.50;;
51732;SDS011;39139;53.144;6.244;2024-01-15T04:48:55;9.13;;;0.60;;
51732;SDS011;39139;53.144;6.244;2024-01-15T04:51:20;6.68;;;1.38;;
51732;SDS011;39139;53.144;6.244;2024-01-15T04:53:46;7.75;;;0.95;;
51732;SDS011;39139;53.144;6.244;2024-01-15T04:56:11;12.65;;;1.10;;
51732;SDS011;39139;53.144;6.244;2024-01-15T04:58:37;3.78;;;0.85;;
51732;SDS011;39139;53.144;6.244;2024-01-15T05:01:03;11.30;;;1.10;;
51732;SDS011;39139;53.144;6.244;2024-01-15T05:03:28;10.65;;;1.48;;
51732;SDS011;39139;53.144;6.244;2024-01-15T05:05:54;11.57;;;2.72;;
51732;SDS011;39139;53.144;6.244;2024-01-15T05:08:20;9.75;;;1.80;;
51732;SDS011;39139;53.144;6.244;2024-01-15T05:10:46;9.73;;;1.27;;
51732;SDS011;39139;53.144;6.244;2024-01-15T05:13:12;8.45;;;1.90;;
51732;SDS011;39139;53.144;6.244;2024-01-15T05:15:38;10.88;;;1.58;;
51732;SDS011;39139;53.144;6.244;2024-01-15T05:18:03;17.48;;;2.38;;
51732;SDS011;39139;53.144;6.244;2024-01-15T05:20:29;17.70;;;1.65;;
51732;SDS011;39139;53.144;6.244;2024-01-15T05:22:55;8.52;;;1.63;;
51732;SDS011;39139;53.144;6.244;2024-01-15T05:25:20;16.23;;;2.45;;
51732;SDS011;39139;53.144;6.244;2024-01-15T05:27:46;15.30;;;3.20;;
51732;SDS011;39139;53.144;6.244;2024-01-15T05:30:11;16.30;;;1.75;;
51732;SDS011;39139;53.144;6.244;2024-01-15T05:32:37;10.38;;;1.40;;
51732;SDS011;39139;53.144;6.244;2024-01-15T05:35:03;12.45;;;2.45;;
51732;SDS011;39139;53.144;6.244;2024-01-15T05:37:29;13.90;;;2.40;;
51732;SDS011;39139;53.144;6.244;2024-01-15T05:39:54;16.83;;;1.67;;
51732;SDS011;39139;53.144;6.244;2024-01-15T05:42:20;17.98;;;1.90;;
51732;SDS011;39139;53.144;6.244;2024-01-15T05:44:45;9.65;;;1.33;;
51732;SDS011;39139;53.144;6.244;2024-01-15T05:47:11;11.77;;;1.42;;
51732;SDS011;39139;53.144;6.244;2024-01-15T05:49:37;17.83;;;1.67;;
51732;SDS011;39139;53.144;6.244;2024-01-15T05:52:02;10.88;;;1.63;;
51732;SDS011;39139;53.144;6.244;2024-01-15T05:54:29;16.95;;;1.92;;
51732;SDS011;39139;53.144;6.244;2024-01-15T05:56:54;7.70;;;1.35;;
51732;SDS011;39139;53.144;6.244;2024-01-15T05:59:20;12.00;;;1.60;;
51732;SDS011;39139;53.144;6.244;2024-01-15T06:01:45;17.13;;;2.22;;
51732;SDS011;39139;53.144;6.244;2024-01-15T06:04:11;12.70;;;1.70;;
51732;SDS011;39139;53.144;6.244;2024-01-15T06:06:36;16.92;;;2.38;;
51732;SDS011;39139;53.144;6.244;2024-01-15T06:09:02;14.07;;;2.00;;
51732;SDS011;39139;53.144;6.244;2024-01-15T06:11:30;12.77;;;1.90;;
51732;SDS011;39139;53.144;6.244;2024-01-15T06:13:56;22.05;;;1.67;;
51732;SDS011;39139;53.144;6.244;2024-01-15T06:16:22;20.65;;;2.05;;
51732;SDS011;39139;53.144;6.244;2024-01-15T06:18:49;13.38;;;2.33;;
51732;SDS011;39139;53.144;6.244;2024-01-15T06:21:15;20.25;;;3.60;;
51732;SDS011;39139;53.144;6.244;2024-01-15T06:23:41;24.10;;;3.90;;
51732;SDS011;39139;53.144;6.244;2024-01-15T06:26:06;35.53;;;3.92;;
51732;SDS011;39139;53.144;6.244;2024-01-15T06:28:32;15.63;;;2.83;;
51732;SDS011;39139;53.144;6.244;2024-01-15T06:30:58;21.50;;;2.53;;
51732;SDS011;39139;53.144;6.244;2024-01-15T06:33:24;18.50;;;2.72;;
51732;SDS011;39139;53.144;6.244;2024-01-15T06:35:50;17.00;;;2.72;;
51732;SDS011;39139;53.144;6.244;2024-01-15T06:38:15;15.43;;;2.42;;
51732;SDS011;39139;53.144;6.244;2024-01-15T06:40:41;17.13;;;2.55;;
51732;SDS011;39139;53.144;6.244;2024-01-15T06:43:10;6.47;;;1.50;;
51732;SDS011;39139;53.144;6.244;2024-01-15T06:45:36;8.40;;;1.55;;
51732;SDS011;39139;53.144;6.244;2024-01-15T06:48:02;8.32;;;1.10;;
51732;SDS011;39139;53.144;6.244;2024-01-15T06:50:28;12.52;;;2.42;;
51732;SDS011;39139;53.144;6.244;2024-01-15T06:52:53;8.52;;;1.30;;
51732;SDS011;39139;53.144;6.244;2024-01-15T06:55:19;15.23;;;2.08;;
51732;SDS011;39139;53.144;6.244;2024-01-15T06:57:45;14.82;;;1.88;;
51732;SDS011;39139;53.144;6.244;2024-01-15T07:00:10;11.55;;;1.50;;
51732;SDS011;39139;53.144;6.244;2024-01-15T07:02:36;13.02;;;1.13;;
51732;SDS011;39139;53.144;6.244;2024-01-15T07:05:02;14.35;;;1.50;;
51732;SDS011;39139;53.144;6.244;2024-01-15T07:07:30;7.90;;;1.63;;
51732;SDS011;39139;53.144;6.244;2024-01-15T07:09:56;16.90;;;2.15;;
51732;SDS011;39139;53.144;6.244;2024-01-15T07:12:21;10.48;;;1.65;;
51732;SDS011;39139;53.144;6.244;2024-01-15T07:14:47;15.10;;;1.70;;
51732;SDS011;39139;53.144;6.244;2024-01-15T07:17:13;11.68;;;2.20;;
51732;SDS011;39139;53.144;6.244;2024-01-15T07:19:38;14.10;;;1.73;;
51732;SDS011;39139;53.144;6.244;2024-01-15T07:22:04;14.57;;;2.03;;
51732;SDS011;39139;53.144;6.244;2024-01-15T07:24:29;10.95;;;1.77;;
51732;SDS011;39139;53.144;6.244;2024-01-15T07:26:55;16.13;;;2.45;;
51732;SDS011;39139;53.144;6.244;2024-01-15T07:29:21;6.70;;;1.30;;
51732;SDS011;39139;53.144;6.244;2024-01-15T07:31:50;8.27;;;1.50;;
51732;SDS011;39139;53.144;6.244;2024-01-15T07:34:16;10.15;;;1.92;;
51732;SDS011;39139;53.144;6.244;2024-01-15T07:36:43;11.30;;;2.03;;
51732;SDS011;39139;53.144;6.244;2024-01-15T07:39:09;11.43;;;1.98;;
51732;SDS011;39139;53.144;6.244;2024-01-15T07:41:35;2.33;;;0.77;;
51732;SDS011;39139;53.144;6.244;2024-01-15T07:44:01;5.50;;;0.82;;
51732;SDS011;39139;53.144;6.244;2024-01-15T07:46:27;4.18;;;0.52;;
51732;SDS011;39139;53.144;6.244;2024-01-15T07:48:52;8.40;;;1.10;;
51732;SDS011;39139;53.144;6.244;2024-01-15T07:51:21;7.72;;;1.02;;
51732;SDS011;39139;53.144;6.244;2024-01-15T07:53:47;5.07;;;0.75;;
51732;SDS011;39139;53.144;6.244;2024-01-15T07:56:13;3.88;;;0.55;;
51732;SDS011;39139;53.144;6.244;2024-01-15T07:58:38;5.55;;;0.85;;
51732;SDS011;39139;53.144;6.244;2024-01-15T08:01:04;5.25;;;0.65;;
51732;SDS011;39139;53.144;6.244;2024-01-15T08:03:30;6.80;;;0.95;;
51732;SDS011;39139;53.144;6.244;2024-01-15T08:05:56;4.50;;;0.57;;
51732;SDS011;39139;53.144;6.244;2024-01-15T08:08:23;4.15;;;0.70;;
51732;SDS011;39139;53.144;6.244;2024-01-15T08:10:49;7.28;;;0.77;;
51732;SDS011;39139;53.144;6.244;2024-01-15T08:13:14;5.50;;;0.90;;
51732;SDS011;39139;53.144;6.244;2024-01-15T08:15:40;5.65;;;0.57;;
51732;SDS011;39139;53.144;6.244;2024-01-15T08:18:06;5.43;;;0.75;;
51732;SDS011;39139;53.144;6.244;2024-01-15T08:20:32;2.25;;;0.38;;
51732;SDS011;39139;53.144;6.244;2024-01-15T08:22:57;5.97;;;1.17;;
51732;SDS011;39139;53.144;6.244;2024-01-15T08:25:23;3.85;;;0.60;;
51732;SDS011;39139;53.144;6.244;2024-01-15T08:27:49;10.88;;;0.80;;
51732;SDS011;39139;53.144;6.244;2024-01-15T08:30:14;4.32;;;0.55;;
51732;SDS011;39139;53.144;6.244;2024-01-15T08:32:40;3.90;;;0.45;;
51732;SDS011;39139;53.144;6.244;2024-01-15T08:35:08;8.18;;;0.60;;
51732;SDS011;39139;53.144;6.244;2024-01-15T08:37:34;5.68;;;0.60;;
51732;SDS011;39139;53.144;6.244;2024-01-15T08:39:59;11.60;;;0.98;;
51732;SDS011;39139;53.144;6.244;2024-01-15T08:42:25;6.15;;;0.50;;
51732;SDS011;39139;53.144;6.244;2024-01-15T08:44:51;3.80;;;0.82;;
51732;SDS011;39139;53.144;6.244;2024-01-15T08:47:16;7.72;;;0.50;;
51732;SDS011;39139;53.144;6.244;2024-01-15T08:49:42;1.65;;;0.50;;
51732;SDS011;39139;53.144;6.244;2024-01-15T08:52:10;4.28;;;0.50;;
51732;SDS011;39139;53.144;6.244;2024-01-15T08:54:35;6.47;;;1.08;;
51732;SDS011;39139;53.144;6.244;2024-01-15T08:57:01;6.47;;;0.98;;
51732;SDS011;39139;53.144;6.244;2024-01-15T08:59:27;7.47;;;0.93;;
51732;SDS011;39139;53.144;6.244;2024-01-15T09:01:53;6.75;;;0.70;;
51732;SDS011;39139;53.144;6.244;2024-01-15T09:04:19;9.88;;;0.95;;
51732;SDS011;39139;53.144;6.244;2024-01-15T09:06:45;9.80;;;1.02;;
51732;SDS011;39139;53.144;6.244;2024-01-15T09:09:17;10.60;;;1.20;;
51732;SDS011;39139;53.144;6.244;2024-01-15T09:11:42;8.02;;;0.68;;
51732;SDS011;39139;53.144;6.244;2024-01-15T09:14:10;7.15;;;0.98;;
51732;SDS011;39139;53.144;6.244;2024-01-15T09:16:35;16.42;;;2.50;;
51732;SDS011;39139;53.144;6.244;2024-01-15T09:19:01;16.27;;;1.63;;
51732;SDS011;39139;53.144;6.244;2024-01-15T09:21:26;9.80;;;1.30;;
51732;SDS011;39139;53.144;6.244;2024-01-15T09:23:52;9.23;;;1.08;;
51732;SDS011;39139;53.144;6.244;2024-01-15T09:26:17;13.80;;;2.03;;
51732;SDS011;39139;53.144;6.244;2024-01-15T09:28:43;13.15;;;1.77;;
51732;SDS011;39139;53.144;6.244;2024-01-15T09:31:09;14.02;;;2.30;;
51732;SDS011;39139;53.144;6.244;2024-01-15T09:33:34;14.32;;;1.80;;
51732;SDS011;39139;53.144;6.244;2024-01-15T09:36:03;10.77;;;1.10;;
51732;SDS011;39139;53.144;6.244;2024-01-15T09:38:31;8.70;;;1.80;;
51732;SDS011;39139;53.144;6.244;2024-01-15T09:40:57;12.93;;;1.52;;
51732;SDS011;39139;53.144;6.244;2024-01-15T09:43:22;14.40;;;2.20;;
51732;SDS011;39139;53.144;6.244;2024-01-15T09:45:49;5.22;;;1.20;;
51732;SDS011;39139;53.144;6.244;2024-01-15T09:48:15;11.00;;;1.60;;
51732;SDS011;39139;53.144;6.244;2024-01-15T09:50:43;16.80;;;1.20;;
51732;SDS011;39139;53.144;6.244;2024-01-15T09:53:09;6.20;;;1.02;;
51732;SDS011;39139;53.144;6.244;2024-01-15T09:55:37;13.40;;;1.60;;
51732;SDS011;39139;53.144;6.244;2024-01-15T09:58:03;16.40;;;2.00;;
51732;SDS011;39139;53.144;6.244;2024-01-15T10:00:29;9.40;;;1.63;;
51732;SDS011;39139;53.144;6.244;2024-01-15T10:02:58;8.43;;;1.40;;
51732;SDS011;39139;53.144;6.244;2024-01-15T10:05:26;11.57;;;1.93;;
51732;SDS011;39139;53.144;6.244;2024-01-15T10:07:53;11.70;;;1.30;;
51732;SDS011;39139;53.144;6.244;2024-01-15T10:10:21;6.82;;;1.10;;
51732;SDS011;39139;53.144;6.244;2024-01-15T10:12:47;5.85;;;1.05;;
51732;SDS011;39139;53.144;6.244;2024-01-15T10:15:14;11.45;;;1.35;;
51732;SDS011;39139;53.144;6.244;2024-01-15T10:17:39;11.32;;;1.38;;
51732;SDS011;39139;53.144;6.244;2024-01-15T10:20:10;7.60;;;1.63;;
51732;SDS011;39139;53.144;6.244;2024-01-15T10:22:43;11.02;;;2.08;;
51732;SDS011;39139;53.144;6.244;2024-01-15T10:25:11;10.05;;;1.05;;
51732;SDS011;39139;53.144;6.244;2024-01-15T10:27:38;4.85;;;0.40;;
51732;SDS011;39139;53.144;6.244;2024-01-15T10:30:05;4.72;;;0.75;;
51732;SDS011;39139;53.144;6.244;2024-01-15T10:32:31;3.45;;;0.50;;
51732;SDS011;39139;53.144;6.244;2024-01-15T10:34:57;4.28;;;0.68;;
51732;SDS011;39139;53.144;6.244;2024-01-15T10:37:32;9.05;;;1.00;;
51732;SDS011;39139;53.144;6.244;2024-01-15T10:40:00;7.72;;;0.70;;
51732;SDS011;39139;53.144;6.244;2024-01-15T10:42:32;4.50;;;0.73;;
51732;SDS011;39139;53.144;6.244;2024-01-15T10:44:57;9.15;;;1.40;;
51732;SDS011;39139;53.144;6.244;2024-01-15T10:47:23;9.05;;;1.73;;
51732;SDS011;39139;53.144;6.244;2024-01-15T10:49:48;6.20;;;0.70;;
51732;SDS011;39139;53.144;6.244;2024-01-15T10:52:15;10.35;;;1.02;;
51732;SDS011;39139;53.144;6.244;2024-01-15T10:54:40;9.23;;;2.47;;
51732;SDS011;39139;53.144;6.244;2024-01-15T10:57:07;4.00;;;0.65;;
51732;SDS011;39139;53.144;6.244;2024-01-15T10:59:33;7.05;;;0.88;;
51732;SDS011;39139;53.144;6.244;2024-01-15T11:01:59;6.32;;;1.13;;
51732;SDS011;39139;53.144;6.244;2024-01-15T11:04:25;8.70;;;1.40;;
51732;SDS011;39139;53.144;6.244;2024-01-15T11:06:53;7.03;;;1.20;;
51732;SDS011;39139;53.144;6.244;2024-01-15T11:09:20;10.27;;;1.55;;
51732;SDS011;39139;53.144;6.244;2024-01-15T11:11:46;8.02;;;1.20;;
51732;SDS011;39139;53.144;6.244;2024-01-15T11:17:31;12.38;;;1.80;;
51732;SDS011;39139;53.144;6.244;2024-01-15T11:20:25;7.72;;;2.13;;
51732;SDS011;39139;53.144;6.244;2024-01-15T11:22:51;11.20;;;1.50;;
51732;SDS011;39139;53.144;6.244;2024-01-15T11:25:20;5.78;;;0.93;;
51732;SDS011;39139;53.144;6.244;2024-01-15T11:27:46;9.95;;;2.30;;
51732;SDS011;39139;53.144;6.244;2024-01-15T11:30:20;5.25;;;0.35;;
51732;SDS011;39139;53.144;6.244;2024-01-15T11:32:50;2.90;;;0.68;;
51732;SDS011;39139;53.144;6.244;2024-01-15T11:35:16;2.53;;;0.32;;
51732;SDS011;39139;53.144;6.244;2024-01-15T11:40:49;1.25;;;0.30;;
51732;SDS011;39139;53.144;6.244;2024-01-15T11:43:11;1.40;;;0.63;;
51732;SDS011;39139;53.144;6.244;2024-01-15T11:45:38;2.10;;;0.80;;
51732;SDS011;39139;53.144;6.244;2024-01-15T11:48:10;3.90;;;0.52;;
51732;SDS011;39139;53.144;6.244;2024-01-15T11:50:41;3.83;;;0.57;;
51732;SDS011;39139;53.144;6.244;2024-01-15T11:53:11;1.73;;;0.50;;
51732;SDS011;39139;53.144;6.244;2024-01-15T11:55:46;4.47;;;0.35;;
51732;SDS011;39139;53.144;6.244;2024-01-15T11:58:13;5.43;;;0.82;;
51732;SDS011;39139;53.144;6.244;2024-01-15T12:00:40;10.88;;;1.52;;
51732;SDS011;39139;53.144;6.244;2024-01-15T12:03:08;11.65;;;1.23;;
51732;SDS011;39139;53.144;6.244;2024-01-15T12:05:36;11.43;;;1.90;;
51732;SDS011;39139;53.144;6.244;2024-01-15T12:08:03;11.43;;;1.40;;
51732;SDS011;39139;53.144;6.244;2024-01-15T12:10:28;8.65;;;1.23;;
51732;SDS011;39139;53.144;6.244;2024-01-15T12:13:05;11.45;;;1.40;;
51732;SDS011;39139;53.144;6.244;2024-01-15T12:15:31;7.13;;;1.20;;
51732;SDS011;39139;53.144;6.244;2024-01-15T12:17:58;8.40;;;1.42;;
51732;SDS011;39139;53.144;6.244;2024-01-15T12:20:25;11.20;;;1.08;;
51732;SDS011;39139;53.144;6.244;2024-01-15T12:22:51;10.15;;;2.30;;
51732;SDS011;39139;53.144;6.244;2024-01-15T12:25:18;18.17;;;3.10;;
51732;SDS011;39139;53.144;6.244;2024-01-15T12:27:44;13.55;;;1.70;;
51732;SDS011;39139;53.144;6.244;2024-01-15T12:30:10;9.95;;;1.45;;
51732;SDS011;39139;53.144;6.244;2024-01-15T12:32:37;9.63;;;1.90;;
51732;SDS011;39139;53.144;6.244;2024-01-15T12:35:02;12.05;;;1.60;;
51732;SDS011;39139;53.144;6.244;2024-01-15T12:37:29;11.18;;;2.00;;
51732;SDS011;39139;53.144;6.244;2024-01-15T12:39:55;11.75;;;1.90;;
51732;SDS011;39139;53.144;6.244;2024-01-15T12:42:21;11.38;;;1.55;;
51732;SDS011;39139;53.144;6.244;2024-01-15T12:44:47;8.55;;;1.25;;
51732;SDS011;39139;53.144;6.244;2024-01-15T12:47:12;6.93;;;1.13;;
51732;SDS011;39139;53.144;6.244;2024-01-15T12:49:39;6.18;;;1.15;;
51732;SDS011;39139;53.144;6.244;2024-01-15T12:52:08;9.20;;;1.50;;
51732;SDS011;39139;53.144;6.244;2024-01-15T12:54:34;14.88;;;1.67;;
51732;SDS011;39139;53.144;6.244;2024-01-15T12:57:00;11.82;;;1.52;;
51732;SDS011;39139;53.144;6.244;2024-01-15T12:59:25;6.45;;;1.58;;
51732;SDS011;39139;53.144;6.244;2024-01-15T13:01:51;6.40;;;0.98;;
51732;SDS011;39139;53.144;6.244;2024-01-15T13:04:21;4.72;;;1.65;;
51732;SDS011;39139;53.144;6.244;2024-01-15T13:09:14;6.45;;;0.98;;
51732;SDS011;39139;53.144;6.244;2024-01-15T13:11:40;4.75;;;1.38;;
51732;SDS011;39139;53.144;6.244;2024-01-15T13:14:05;8.18;;;1.20;;
51732;SDS011;39139;53.144;6.244;2024-01-15T13:16:31;8.48;;;1.10;;
51732;SDS011;39139;53.144;6.244;2024-01-15T13:18:57;8.27;;;0.98;;
51732;SDS011;39139;53.144;6.244;2024-01-15T13:21:23;6.85;;;0.93;;
51732;SDS011;39139;53.144;6.244;2024-01-15T13:23:49;9.90;;;0.90;;
51732;SDS011;39139;53.144;6.244;2024-01-15T13:26:15;11.02;;;1.08;;
51732;SDS011;39139;53.144;6.244;2024-01-15T13:28:43;13.73;;;1.65;;
51732;SDS011;39139;53.144;6.244;2024-01-15T13:31:09;7.03;;;1.08;;
51732;SDS011;39139;53.144;6.244;2024-01-15T13:33:34;9.00;;;1.88;;
51732;SDS011;39139;53.144;6.244;2024-01-15T13:36:00;7.68;;;1.45;;
51732;SDS011;39139;53.144;6.244;2024-01-15T13:38:25;4.05;;;1.10;;
51732;SDS011;39139;53.144;6.244;2024-01-15T13:40:52;8.23;;;1.23;;
51732;SDS011;39139;53.144;6.244;2024-01-15T13:43:20;10.15;;;2.08;;
51732;SDS011;39139;53.144;6.244;2024-01-15T13:45:46;13.77;;;1.77;;
51732;SDS011;39139;53.144;6.244;2024-01-15T13:48:11;14.18;;;2.15;;
51732;SDS011;39139;53.144;6.244;2024-01-15T13:50:37;7.35;;;1.73;;
51732;SDS011;39139;53.144;6.244;2024-01-15T13:53:03;10.70;;;1.73;;
51732;SDS011;39139;53.144;6.244;2024-01-15T13:55:29;19.13;;;1.98;;
51732;SDS011;39139;53.144;6.244;2024-01-15T13:57:55;11.80;;;2.08;;
51732;SDS011;39139;53.144;6.244;2024-01-15T14:00:20;8.25;;;2.40;;
51732;SDS011;39139;53.144;6.244;2024-01-15T14:02:47;12.82;;;2.05;;
51732;SDS011;39139;53.144;6.244;2024-01-15T14:05:12;9.18;;;1.10;;
51732;SDS011;39139;53.144;6.244;2024-01-15T14:07:39;17.65;;;1.58;;
51732;SDS011;39139;53.144;6.244;2024-01-15T14:10:05;11.15;;;1.80;;
51732;SDS011;39139;53.144;6.244;2024-01-15T14:12:33;12.48;;;1.80;;
51732;SDS011;39139;53.144;6.244;2024-01-15T14:14:59;14.07;;;2.55;;
51732;SDS011;39139;53.144;6.244;2024-01-15T14:17:24;13.60;;;2.22;;
51732;SDS011;39139;53.144;6.244;2024-01-15T14:19:50;13.88;;;2.67;;
51732;SDS011;39139;53.144;6.244;2024-01-15T14:22:16;13.50;;;1.98;;
51732;SDS011;39139;53.144;6.244;2024-01-15T14:24:41;16.13;;;2.40;;
51732;SDS011;39139;53.144;6.244;2024-01-15T14:27:07;12.85;;;2.08;;
51732;SDS011;39139;53.144;6.244;2024-01-15T14:29:34;5.82;;;1.35;;
51732;SDS011;39139;53.144;6.244;2024-01-15T14:32:00;11.30;;;2.03;;
51732;SDS011;39139;53.144;6.244;2024-01-15T14:34:26;13.18;;;2.25;;
51732;SDS011;39139;53.144;6.244;2024-01-15T14:36:52;13.80;;;1.70;;
51732;SDS011;39139;53.144;6.244;2024-01-15T14:39:19;13.20;;;1.95;;
51732;SDS011;39139;53.144;6.244;2024-01-15T14:41:45;12.77;;;1.65;;
51732;SDS011;39139;53.144;6.244;2024-01-15T14:44:11;15.30;;;2.03;;